Time;durP1;ratioP1;P1;durP2;ratioP2;P2;SDS_P1;SDS_P2;PMS_P1;PMS_P2;Temp;Humidity;BMP_temperature;BMP_pressure;BME280_temperature;BME280_humidity;BME280_pressure;Samples;Min_cycle;Max_cycle;Signal;HPM_P1;HPM_P2
2023/09/01 00:00:30;;;;;;;8.23;4.47;;;13.00;88.40;;;;;;4923287;28;20039;-77
2023/09/01 00:02:56;;;;;;;6.72;4.30;;;13.00;88.30;;;;;;4950110;28;20047;-79
2023/09/01 00:05:22;;;;;;;9.63;5.03;;;13.00;88.40;;;;;;4977466;28;20047;-78
2023/09/01 00:07:47;;;;;;;5.82;4.55;;;13.00;88.30;;;;;;4961564;28;20129;-79
2023/09/01 00:10:13;;;;;;;7.68;4.82;;;13.00;88.30;;;;;;4929792;28;20046;-78
2023/09/01 00:12:39;;;;;;;5.28;3.90;;;13.00;88.40;;;;;;4961242;28;20485;-77
2023/09/01 00:15:05;;;;;;;7.68;4.60;;;12.90;88.40;;;;;;4961309;28;20401;-78
2023/09/01 00:17:31;;;;;;;6.05;4.70;;;12.80;88.30;;;;;;4945543;28;20398;-78
2023/09/01 00:19:56;;;;;;;6.70;4.35;;;12.80;88.40;;;;;;4977181;28;20035;-79
2023/09/01 00:22:22;;;;;;;6.45;4.80;;;12.80;88.50;;;;;;4961045;28;20046;-79
2023/09/01 00:24:48;;;;;;;5.18;4.68;;;12.80;88.80;;;;;;4960905;28;20088;-78
2023/09/01 00:27:13;;;;;;;8.10;4.68;;;12.80;89.00;;;;;;4977040;28;20125;-79
2023/09/01 00:29:39;;;;;;;9.25;4.60;;;12.80;88.90;;;;;;4961164;28;20053;-79
2023/09/01 00:32:05;;;;;;;7.13;4.30;;;12.80;88.90;;;;;;4961042;28;20478;-79
2023/09/01 00:34:32;;;;;;;9.02;4.82;;;12.80;88.80;;;;;;4977193;28;20053;-79
2023/09/01 00:36:58;;;;;;;8.10;3.95;;;12.80;88.90;;;;;;4960824;28;20112;-79
2023/09/01 00:39:23;;;;;;;6.18;4.22;;;12.70;89.20;;;;;;4960682;28;20042;-78
2023/09/01 00:41:49;;;;;;;4.90;4.40;;;12.70;89.30;;;;;;4934949;28;20178;-79
2023/09/01 00:44:15;;;;;;;5.63;4.32;;;12.70;89.20;;;;;;4925565;28;20126;-79
2023/09/01 00:46:46;;;;;;;8.20;4.13;;;12.60;89.20;;;;;;4941492;28;20077;-79
2023/09/01 00:49:12;;;;;;;4.40;4.00;;;12.60;89.30;;;;;;4926235;28;20046;-79
2023/09/01 00:51:38;;;;;;;7.43;4.05;;;12.50;89.30;;;;;;4957512;28;20467;-79
2023/09/01 00:54:05;;;;;;;6.20;4.57;;;12.50;89.40;;;;;;4941668;28;20042;-79
2023/09/01 00:56:32;;;;;;;5.22;4.22;;;12.50;89.50;;;;;;4957658;28;20403;-79
2023/09/01 00:58:57;;;;;;;9.82;5.20;;;12.50;89.80;;;;;;4941289;28;20039;-79
2023/09/01 01:01:23;;;;;;;6.60;5.20;;;12.50;89.90;;;;;;4941244;28;20075;-78
2023/09/01 01:03:51;;;;;;;7.50;5.03;;;12.50;90.00;;;;;;4941570;28;20574;-79
2023/09/01 01:06:19;;;;;;;8.32;4.82;;;12.50;90.00;;;;;;4941566;28;20039;-79
2023/09/01 01:09:14;;;;;;;8.05;5.15;;;12.40;89.90;;;;;;4957498;28;20042;-79
2023/09/01 01:11:40;;;;;;;6.90;5.03;;;12.50;89.90;;;;;;4941064;28;20085;-79
2023/09/01 01:14:13;;;;;;;8.90;4.90;;;12.40;89.90;;;;;;4941442;28;20074;-80
2023/09/01 01:16:39;;;;;;;5.57;4.50;;;12.30;89.80;;;;;;4957140;28;20047;-79
2023/09/01 01:19:31;;;;;;;9.05;4.68;;;12.30;89.80;;;;;;4925560;28;20046;-79
2023/09/01 01:22:00;;;;;;;6.70;5.18;;;12.30;90.00;;;;;;4941024;28;20510;-79
2023/09/01 01:24:26;;;;;;;7.53;4.90;;;12.30;89.90;;;;;;4957107;28;20043;-79
2023/09/01 01:26:53;;;;;;;6.75;5.40;;;12.30;89.90;;;;;;4957097;28;20065;-79
2023/09/01 01:29:19;;;;;;;8.20;5.30;;;12.30;89.80;;;;;;4925286;28;20039;-79
2023/09/01 01:31:44;;;;;;;10.40;5.20;;;12.30;89.90;;;;;;4925058;28;20061;-79
2023/09/01 01:34:34;;;;;;;8.50;5.93;;;12.30;89.90;;;;;;4941132;28;20034;-80
2023/09/01 01:37:11;;;;;;;5.80;4.85;;;12.30;90.00;;;;;;4957162;28;20039;-79
2023/09/01 01:39:38;;;;;;;6.13;5.07;;;12.30;90.50;;;;;;4956961;28;20039;-79
2023/09/01 01:42:14;;;;;;;7.80;5.63;;;12.30;90.50;;;;;;4941253;28;20368;-80
2023/09/01 01:44:43;;;;;;;6.65;5.40;;;12.30;90.50;;;;;;4957102;28;20043;-79
2023/09/01 01:47:11;;;;;;;7.07;5.50;;;12.30;90.40;;;;;;4940825;28;20049;-80
2023/09/01 01:49:37;;;;;;;8.85;5.80;;;12.30;90.40;;;;;;4941142;28;20058;-79
2023/09/01 01:52:03;;;;;;;9.77;5.80;;;12.30;90.40;;;;;;4956674;28;20483;-79
2023/09/01 01:54:33;;;;;;;7.95;5.00;;;12.30;90.50;;;;;;4940886;28;20491;-78
2023/09/01 01:56:59;;;;;;;5.63;4.03;;;12.30;90.60;;;;;;4956887;28;20074;-79
2023/09/01 01:59:25;;;;;;;5.78;3.90;;;12.30;90.50;;;;;;4957042;28;20074;-79
2023/09/01 02:01:51;;;;;;;7.75;3.92;;;12.20;90.40;;;;;;4925034;28;20502;-79
2023/09/01 02:04:16;;;;;;;5.05;3.85;;;12.10;90.30;;;;;;4957053;28;20047;-79
2023/09/01 02:06:42;;;;;;;6.28;4.10;;;12.10;90.50;;;;;;4925149;28;20041;-79
2023/09/01 02:09:11;;;;;;;6.38;3.88;;;12.10;90.50;;;;;;4925240;28;20039;-79
2023/09/01 02:11:37;;;;;;;4.80;3.80;;;12.10;90.50;;;;;;4941622;28;20394;-79
2023/09/01 02:14:03;;;;;;;3.92;3.53;;;12.00;90.50;;;;;;4943078;28;20039;-79
2023/09/01 02:16:28;;;;;;;5.95;3.97;;;12.00;90.50;;;;;;4912908;28;20043;-78
2023/09/01 02:18:54;;;;;;;7.65;4.95;;;12.00;90.60;;;;;;4960322;28;20506;-78
2023/09/01 02:21:21;;;;;;;8.85;5.47;;;12.10;90.70;;;;;;4960130;28;20127;-79
2023/09/01 02:23:47;;;;;;;4.65;3.97;;;12.00;91.10;;;;;;4944259;28;20436;-79
2023/09/01 02:26:20;;;;;;;6.32;4.45;;;12.00;91.00;;;;;;4944081;28;20045;-78
2023/09/01 02:28:47;;;;;;;6.70;3.55;;;12.00;90.90;;;;;;4944273;28;20395;-79
2023/09/01 02:31:14;;;;;;;6.75;5.25;;;11.90;90.80;;;;;;4928219;28;20046;-79
2023/09/01 02:33:40;;;;;;;6.15;4.88;;;11.90;91.10;;;;;;4959769;28;20105;-79
2023/09/01 02:36:26;;;;;;;8.35;5.30;;;11.90;91.20;;;;;;4959842;28;20058;-80
2023/09/01 02:38:55;;;;;;;8.45;6.35;;;12.00;91.60;;;;;;4959945;28;20414;-79
2023/09/01 02:41:22;;;;;;;6.07;5.25;;;12.00;92.10;;;;;;4927815;28;20081;-80
2023/09/01 02:43:48;;;;;;;5.13;4.55;;;11.90;92.00;;;;;;4927758;28;20050;-79
2023/09/01 02:46:14;;;;;;;8.27;6.07;;;11.90;91.70;;;;;;4944017;28;20031;-79
2023/09/01 02:48:40;;;;;;;6.97;5.57;;;11.80;91.40;;;;;;4943493;28;20086;-79
2023/09/01 02:51:06;;;;;;;10.32;5.68;;;11.80;91.30;;;;;;4959821;28;20100;-80
2023/09/01 02:53:33;;;;;;;9.27;5.30;;;11.90;91.60;;;;;;4943835;28;20051;-79
2023/09/01 02:55:59;;;;;;;6.88;5.45;;;11.90;91.60;;;;;;4959814;28;20051;-79
2023/09/01 02:58:25;;;;;;;5.95;4.25;;;11.80;91.50;;;;;;4959444;28;20517;-80
2023/09/01 03:00:51;;;;;;;5.32;3.70;;;11.80;91.30;;;;;;4959476;28;20047;-79
2023/09/01 03:03:19;;;;;;;4.47;3.75;;;11.70;91.30;;;;;;4943111;28;20514;-78
2023/09/01 03:05:49;;;;;;;4.90;3.60;;;11.70;91.30;;;;;;4943422;28;20050;-79
2023/09/01 03:08:17;;;;;;;5.80;3.65;;;11.60;91.30;;;;;;4927873;28;20548;-79
2023/09/01 03:10:42;;;;;;;5.35;3.90;;;11.60;91.20;;;;;;4959048;28;20047;-79
2023/09/01 03:13:08;;;;;;;5.50;3.95;;;11.50;91.20;;;;;;4959258;28;20053;-79
2023/09/01 03:15:34;;;;;;;6.38;4.38;;;11.50;91.30;;;;;;4927362;28;20499;-79
2023/09/01 03:18:00;;;;;;;4.60;4.05;;;11.50;91.30;;;;;;4943208;28;20054;-79
2023/09/01 03:20:26;;;;;;;8.45;5.50;;;11.50;91.50;;;;;;4959016;28;20039;-79
2023/09/01 03:22:51;;;;;;;7.45;5.75;;;11.50;91.70;;;;;;4943070;28;20051;-79
2023/09/01 03:25:17;;;;;;;6.32;5.22;;;11.60;91.80;;;;;;4927409;28;20047;-79
2023/09/01 03:27:43;;;;;;;5.75;4.93;;;11.60;91.70;;;;;;4927241;28;20447;-78
2023/09/01 03:30:10;;;;;;;8.38;4.75;;;11.60;91.70;;;;;;4943058;28;20053;-79
2023/09/01 03:32:37;;;;;;;5.50;4.03;;;11.50;91.60;;;;;;4958935;28;20257;-79
2023/09/01 03:35:04;;;;;;;5.60;4.35;;;11.50;91.60;;;;;;4943166;28;20394;-78
2023/09/01 03:37:30;;;;;;;5.13;3.83;;;11.50;91.60;;;;;;4958905;28;20038;-77
2023/09/01 03:39:55;;;;;;;6.05;4.38;;;11.50;91.60;;;;;;4927060;28;20034;-80
2023/09/01 03:42:21;;;;;;;4.20;3.80;;;11.50;91.80;;;;;;4942786;28;20189;-79
2023/09/01 03:44:47;;;;;;;3.72;3.15;;;11.40;91.80;;;;;;4942782;28;20074;-80
2023/09/01 03:47:13;;;;;;;4.45;3.60;;;11.40;91.90;;;;;;4926987;28;20128;-79
2023/09/01 03:49:38;;;;;;;6.88;3.47;;;11.40;91.80;;;;;;4926770;28;20047;-79
2023/09/01 03:52:04;;;;;;;5.50;3.67;;;11.30;91.80;;;;;;4942883;28;20178;-79
2023/09/01 03:54:30;;;;;;;3.80;2.95;;;11.40;91.90;;;;;;4942831;28;20078;-78
2023/09/01 03:56:56;;;;;;;4.03;2.83;;;11.30;91.90;;;;;;4942542;28;20113;-79
2023/09/01 03:59:22;;;;;;;5.38;3.30;;;11.30;91.80;;;;;;4958626;28;20089;-79
2023/09/01 04:01:48;;;;;;;4.18;3.42;;;11.30;91.80;;;;;;4958653;28;20509;-80
2023/09/01 04:04:14;;;;;;;4.22;3.38;;;11.30;91.70;;;;;;4942350;28;20070;-79
2023/09/01 04:06:40;;;;;;;5.22;4.47;;;11.20;91.70;;;;;;4958381;28;20053;-78
2023/09/01 04:09:08;;;;;;;8.55;4.00;;;11.20;91.60;;;;;;4942315;28;20042;-80
2023/09/01 04:11:34;;;;;;;6.75;4.78;;;11.20;91.60;;;;;;4926830;28;20042;-80
2023/09/01 04:14:01;;;;;;;9.57;5.82;;;11.30;91.70;;;;;;4958198;28;20080;-78
2023/09/01 04:16:27;;;;;;;7.03;5.32;;;11.20;91.90;;;;;;4942179;28;20483;-77
2023/09/01 04:18:54;;;;;;;9.02;5.20;;;11.30;92.00;;;;;;4958004;28;20105;-80
2023/09/01 04:21:19;;;;;;;7.53;5.22;;;11.20;91.90;;;;;;4958034;28;20393;-79
2023/09/01 04:23:46;;;;;;;5.38;4.82;;;11.20;91.90;;;;;;4926553;28;20055;-80
2023/09/01 04:26:12;;;;;;;8.25;5.55;;;11.20;91.80;;;;;;4942020;28;20384;-80
2023/09/01 04:28:38;;;;;;;6.78;4.95;;;11.20;91.80;;;;;;4941924;28;20053;-79
2023/09/01 04:31:29;;;;;;;6.00;4.82;;;11.10;91.70;;;;;;4941640;28;20042;-80
2023/09/01 04:33:56;;;;;;;6.00;4.65;;;11.10;91.70;;;;;;4957621;28;20089;-78
2023/09/01 04:36:22;;;;;;;9.20;5.20;;;11.10;91.70;;;;;;4941136;28;20043;-79
2023/09/01 04:38:48;;;;;;;7.43;4.95;;;11.10;91.80;;;;;;4925583;28;20101;-79
2023/09/01 04:41:13;;;;;;;6.80;4.18;;;11.10;91.80;;;;;;4957130;28;20042;-79
2023/09/01 04:43:39;;;;;;;8.45;6.10;;;11.00;91.70;;;;;;4956954;28;20126;-78
2023/09/01 04:46:05;;;;;;;8.00;5.55;;;11.10;91.70;;;;;;4941300;28;20094;-78
2023/09/01 04:48:31;;;;;;;8.27;6.30;;;11.00;91.90;;;;;;4941268;28;20043;-78
2023/09/01 04:51:00;;;;;;;6.90;5.60;;;11.00;92.10;;;;;;4956808;28;20130;-78
2023/09/01 04:53:25;;;;;;;7.25;5.85;;;11.00;92.20;;;;;;4941237;28;20042;-78
2023/09/01 04:55:51;;;;;;;8.25;5.82;;;11.00;92.00;;;;;;4965009;28;20044;-79
2023/09/01 04:58:17;;;;;;;6.60;5.68;;;11.00;91.90;;;;;;4981539;28;20035;-78
2023/09/01 05:00:43;;;;;;;8.85;6.03;;;11.00;91.90;;;;;;4956518;28;20391;-79
2023/09/01 05:03:08;;;;;;;12.55;5.95;;;11.00;91.90;;;;;;4956665;28;20039;-78
2023/09/01 05:05:34;;;;;;;8.25;5.57;;;11.00;91.90;;;;;;4925154;28;20038;-78
2023/09/01 05:08:00;;;;;;;8.32;6.40;;;11.00;91.90;;;;;;4967845;28;20039;-79
2023/09/01 05:10:26;;;;;;;8.35;5.47;;;11.00;91.80;;;;;;4924710;28;20049;-79
2023/09/01 05:12:52;;;;;;;10.45;6.30;;;11.00;91.90;;;;;;4978235;28;20046;-79
2023/09/01 05:15:18;;;;;;;8.10;6.05;;;11.00;91.90;;;;;;4981831;28;20479;-78
2023/09/01 05:17:45;;;;;;;7.47;6.75;;;11.00;92.00;;;;;;4909630;28;20034;-78
2023/09/01 05:20:11;;;;;;;9.23;6.70;;;11.10;92.10;;;;;;4956072;28;20046;-78
2023/09/01 05:22:37;;;;;;;8.85;6.85;;;11.20;92.40;;;;;;4956882;28;20126;-79
2023/09/01 05:25:03;;;;;;;8.57;7.10;;;11.20;92.50;;;;;;4973371;28;20043;-79
2023/09/01 05:27:29;;;;;;;9.68;6.75;;;11.30;92.50;;;;;;4989193;28;20042;-79
2023/09/01 05:29:55;;;;;;;10.85;6.68;;;11.30;92.50;;;;;;4972923;28;20050;-79
2023/09/01 05:32:23;;;;;;;8.82;6.78;;;11.40;92.50;;;;;;4989109;28;20062;-78
2023/09/01 05:34:49;;;;;;;10.57;6.65;;;11.50;92.50;;;;;;4956969;28;20499;-79
2023/09/01 05:37:15;;;;;;;9.75;6.78;;;11.50;92.40;;;;;;4989446;28;20380;-79
2023/09/01 05:39:41;;;;;;;8.50;6.68;;;11.50;92.30;;;;;;4989221;28;20050;-79
2023/09/01 05:42:08;;;;;;;10.98;7.35;;;11.60;92.30;;;;;;4940813;28;20101;-78
2023/09/01 05:44:35;;;;;;;9.32;6.45;;;11.60;92.30;;;;;;4940961;28;20039;-79
2023/09/01 05:47:00;;;;;;;8.98;6.78;;;11.70;92.30;;;;;;4941186;28;20419;-79
2023/09/01 05:49:26;;;;;;;11.43;6.72;;;11.70;92.40;;;;;;4976067;28;20050;-79
2023/09/01 05:51:52;;;;;;;9.90;6.50;;;11.70;92.30;;;;;;4976766;28;20510;-79
2023/09/01 05:54:18;;;;;;;10.85;6.95;;;11.80;92.40;;;;;;4960748;28;20038;-79
2023/09/01 05:56:45;;;;;;;6.78;5.32;;;11.80;92.40;;;;;;4976625;28;20045;-78
2023/09/01 05:59:10;;;;;;;8.05;6.80;;;11.90;92.40;;;;;;4979833;28;20077;-79
2023/09/01 06:01:36;;;;;;;9.43;6.93;;;12.00;92.40;;;;;;4964053;28;20080;-79
2023/09/01 06:04:03;;;;;;;9.63;6.20;;;12.00;92.40;;;;;;4964003;28;20459;-78
2023/09/01 06:06:31;;;;;;;10.18;6.15;;;12.00;92.40;;;;;;4963670;28;20050;-77
2023/09/01 06:08:58;;;;;;;7.75;6.55;;;12.00;92.40;;;;;;4963791;28;20052;-77
2023/09/01 06:11:24;;;;;;;9.38;5.82;;;12.10;92.50;;;;;;4979802;28;20069;-78
2023/09/01 06:13:50;;;;;;;9.10;6.07;;;12.10;92.60;;;;;;4947970;28;20046;-78
2023/09/01 06:16:16;;;;;;;8.02;6.75;;;12.20;92.60;;;;;;4942341;28;20457;-79
2023/09/01 06:18:41;;;;;;;8.98;6.18;;;12.20;92.50;;;;;;4981558;28;20043;-79
2023/09/01 06:21:07;;;;;;;10.27;6.40;;;12.30;92.60;;;;;;4944337;28;20043;-79
2023/09/01 06:23:33;;;;;;;8.25;5.80;;;12.40;92.50;;;;;;4928568;28;20093;-79
2023/09/01 06:25:59;;;;;;;9.05;6.40;;;12.50;92.60;;;;;;4960693;28;20031;-78
2023/09/01 06:28:25;;;;;;;8.98;6.53;;;12.50;92.60;;;;;;4912858;28;20035;-78
2023/09/01 06:30:50;;;;;;;5.78;5.18;;;12.60;92.60;;;;;;4960477;28;20047;-79
2023/09/01 06:33:16;;;;;;;6.90;5.00;;;12.70;92.60;;;;;;4944510;28;20043;-79
2023/09/01 06:35:42;;;;;;;8.43;5.55;;;12.80;92.50;;;;;;4928312;28;20438;-78
2023/09/01 06:38:08;;;;;;;9.98;5.40;;;13.00;92.40;;;;;;4944235;28;20525;-79
2023/09/01 06:40:34;;;;;;;6.93;4.50;;;13.00;92.30;;;;;;4944153;28;20043;-79
2023/09/01 06:43:02;;;;;;;9.65;4.95;;;13.20;92.40;;;;;;4944137;28;20049;-78
2023/09/01 06:45:28;;;;;;;9.18;4.75;;;13.30;92.30;;;;;;4943937;28;20045;-78
2023/09/01 06:47:56;;;;;;;6.75;4.22;;;13.40;92.40;;;;;;4960129;28;20039;-77
2023/09/01 06:50:22;;;;;;;6.43;4.10;;;13.40;92.40;;;;;;4956683;29;20152;-79
2023/09/01 06:52:48;;;;;;;7.05;4.50;;;13.50;92.20;;;;;;4956709;28;20090;-79
2023/09/01 06:55:13;;;;;;;9.15;4.43;;;13.50;92.30;;;;;;4956616;29;20439;-79
2023/09/01 06:57:40;;;;;;;6.60;4.53;;;13.60;92.20;;;;;;4925175;29;20494;-78
2023/09/01 07:00:09;;;;;;;6.28;3.67;;;13.60;92.00;;;;;;4956018;28;20054;-79
2023/09/01 07:02:35;;;;;;;5.65;3.67;;;13.70;91.90;;;;;;4940868;29;20110;-79
2023/09/01 07:05:02;;;;;;;5.03;3.30;;;13.80;91.70;;;;;;4956387;29;20122;-77
2023/09/01 07:07:28;;;;;;;6.88;3.65;;;14.00;91.40;;;;;;4956677;29;20456;-77
2023/09/01 07:09:54;;;;;;;5.07;3.28;;;14.00;91.20;;;;;;4940647;29;20079;-79
2023/09/01 07:12:19;;;;;;;9.18;3.80;;;14.10;91.00;;;;;;4940181;29;20047;-79
2023/09/01 07:14:45;;;;;;;6.78;3.85;;;14.20;90.80;;;;;;4924783;29;20373;-78
2023/09/01 07:17:12;;;;;;;5.90;3.78;;;14.20;90.60;;;;;;4956346;29;20093;-81
2023/09/01 07:19:38;;;;;;;4.70;3.50;;;14.20;90.10;;;;;;4956160;29;20081;-79
2023/09/01 07:22:05;;;;;;;7.25;3.58;;;14.30;90.00;;;;;;4923935;29;20487;-79
2023/09/01 07:24:31;;;;;;;6.30;4.13;;;14.30;90.20;;;;;;4956165;29;20480;-79
2023/09/01 07:26:57;;;;;;;6.68;4.75;;;14.30;90.10;;;;;;4924702;29;20122;-79
2023/09/01 07:29:23;;;;;;;9.77;4.18;;;14.40;90.30;;;;;;4924341;29;20075;-78
2023/09/01 07:31:49;;;;;;;6.10;4.38;;;14.40;90.20;;;;;;4955830;28;20496;-78
2023/09/01 07:34:15;;;;;;;6.32;3.70;;;14.50;90.20;;;;;;4908591;29;20039;-80
2023/09/01 07:36:40;;;;;;;6.07;4.07;;;14.50;90.30;;;;;;4924302;29;20120;-79
2023/09/01 07:39:06;;;;;;;5.80;4.13;;;14.50;90.30;;;;;;4955927;28;20042;-78
2023/09/01 07:41:32;;;;;;;6.55;4.28;;;14.60;90.30;;;;;;4939990;29;20043;-79
2023/09/01 07:43:58;;;;;;;6.50;4.22;;;14.70;90.30;;;;;;4908388;29;20554;-79
2023/09/01 07:46:23;;;;;;;8.95;4.32;;;14.70;90.20;;;;;;4939703;29;20050;-79
2023/09/01 07:48:49;;;;;;;8.20;4.45;;;14.80;90.20;;;;;;4939860;29;20039;-79
2023/09/01 07:51:15;;;;;;;5.65;4.50;;;14.80;90.00;;;;;;4923901;29;20059;-79
2023/09/01 07:53:41;;;;;;;9.57;4.65;;;15.00;89.90;;;;;;4955737;28;20403;-79
2023/09/01 07:56:08;;;;;;;5.63;3.58;;;15.00;89.80;;;;;;4923718;29;20411;-80
2023/09/01 07:58:34;;;;;;;6.93;4.95;;;15.10;89.70;;;;;;4955739;29;20050;-79
2023/09/01 08:00:59;;;;;;;8.82;4.25;;;15.20;89.60;;;;;;4923629;29;20407;-79
2023/09/01 08:03:26;;;;;;;5.25;3.50;;;15.30;89.50;;;;;;4939091;29;20066;-79
2023/09/01 08:05:51;;;;;;;5.25;3.63;;;15.40;89.40;;;;;;4923555;29;20043;-79
2023/09/01 08:08:17;;;;;;;6.00;2.97;;;15.50;89.20;;;;;;4923319;29;20039;-79
2023/09/01 08:10:43;;;;;;;5.85;3.72;;;15.60;89.10;;;;;;4954773;28;20085;-79
2023/09/01 08:13:09;;;;;;;5.43;3.08;;;15.60;88.90;;;;;;4939160;29;20054;-80
2023/09/01 08:15:34;;;;;;;8.63;3.72;;;15.70;88.70;;;;;;4939535;29;20137;-80
2023/09/01 08:18:00;;;;;;;5.95;3.42;;;15.80;88.80;;;;;;4939207;29;20043;-79
2023/09/01 08:20:26;;;;;;;7.53;3.90;;;15.90;88.60;;;;;;4939128;29;20047;-79
2023/09/01 08:22:53;;;;;;;5.20;3.50;;;16.00;88.30;;;;;;4939134;29;20042;-79
2023/09/01 08:25:18;;;;;;;6.72;3.63;;;16.00;87.70;;;;;;4923423;29;20039;-79
2023/09/01 08:27:44;;;;;;;6.65;3.58;;;16.10;87.90;;;;;;4923496;29;20039;-80
2023/09/01 08:30:13;;;;;;;6.30;3.35;;;16.20;87.80;;;;;;4939183;29;20047;-80
2023/09/01 08:32:42;;;;;;;5.13;2.60;;;16.20;87.60;;;;;;4939314;29;20447;-79
2023/09/01 08:35:08;;;;;;;5.63;3.08;;;16.30;87.00;;;;;;4954979;29;20054;-79
2023/09/01 08:37:34;;;;;;;6.30;2.47;;;16.40;86.10;;;;;;4955012;28;20360;-79
2023/09/01 08:40:00;;;;;;;3.25;2.05;;;16.40;86.00;;;;;;4938740;29;20050;-78
2023/09/01 08:42:29;;;;;;;4.15;2.45;;;16.40;85.90;;;;;;4938989;29;20057;-78
2023/09/01 08:44:58;;;;;;;3.90;2.67;;;16.50;85.40;;;;;;4923812;29;20094;-78
2023/09/01 08:47:25;;;;;;;5.40;2.50;;;16.60;85.80;;;;;;4954761;29;20039;-79
2023/09/01 08:49:52;;;;;;;5.95;2.40;;;16.60;85.30;;;;;;4922961;29;20066;-79
2023/09/01 08:52:19;;;;;;;6.10;2.50;;;16.60;85.10;;;;;;4938431;29;20055;-78
2023/09/01 08:54:46;;;;;;;5.40;2.17;;;16.70;85.40;;;;;;4938462;29;20047;-79
2023/09/01 08:57:12;;;;;;;5.03;2.35;;;16.70;85.10;;;;;;4938866;29;20051;-79
2023/09/01 08:59:38;;;;;;;4.72;2.22;;;16.70;85.30;;;;;;4938721;29;20126;-79
2023/09/01 09:02:05;;;;;;;4.28;2.50;;;16.80;85.20;;;;;;4938782;29;20476;-78
2023/09/01 09:04:31;;;;;;;4.78;1.75;;;16.90;85.00;;;;;;4939014;29;20047;-79
2023/09/01 09:07:15;;;;;;;3.40;1.67;;;16.90;84.80;;;;;;4938624;29;20194;-79
2023/09/01 09:09:55;;;;;;;6.53;1.63;;;17.00;84.10;;;;;;4956005;28;20043;-80
2023/09/01 09:12:43;;;;;;;3.67;1.73;;;17.00;83.30;;;;;;4940427;28;20169;-81
2023/09/01 09:15:14;;;;;;;4.00;1.95;;;17.00;83.70;;;;;;4945363;28;20126;-80
2023/09/01 09:17:44;;;;;;;6.40;2.33;;;17.00;83.40;;;;;;4942228;28;20097;-80
2023/09/01 09:20:15;;;;;;;5.53;2.30;;;17.10;83.60;;;;;;4944945;28;20093;-82
2023/09/01 09:23:00;;;;;;;5.70;2.20;;;17.20;83.60;;;;;;4929016;28;20038;-81
2023/09/01 09:25:31;;;;;;;4.50;2.42;;;17.20;82.60;;;;;;4946291;28;20050;-79
2023/09/01 09:28:09;;;;;;;4.32;2.00;;;17.10;82.10;;;;;;4941593;29;20146;-79
2023/09/01 09:30:35;;;;;;;7.03;2.90;;;17.20;82.70;;;;;;4941808;29;20048;-80
2023/09/01 09:33:06;;;;;;;5.90;3.00;;;17.20;82.10;;;;;;4910111;29;20039;-82
2023/09/01 09:35:35;;;;;;;3.50;2.67;;;17.20;82.60;;;;;;4925733;29;20043;-81
2023/09/01 09:38:01;;;;;;;4.15;2.70;;;17.20;82.00;;;;;;4925893;29;20484;-82
2023/09/01 09:40:27;;;;;;;6.88;3.22;;;17.20;82.20;;;;;;4909461;29;20047;-81
2023/09/01 09:42:59;;;;;;;6.53;2.53;;;17.20;82.70;;;;;;4925525;29;20078;-79
2023/09/01 09:45:32;;;;;;;4.88;2.40;;;17.30;82.80;;;;;;4925543;29;20063;-80
2023/09/01 09:48:02;;;;;;;3.55;1.83;;;17.30;82.60;;;;;;4941422;29;20043;-80
2023/09/01 09:50:29;;;;;;;5.00;2.35;;;17.30;81.70;;;;;;4947501;28;20081;-79
2023/09/01 09:53:03;;;;;;;5.80;2.30;;;17.30;82.00;;;;;;4931868;28;20059;-80
2023/09/01 09:55:49;;;;;;;5.18;2.50;;;17.40;81.60;;;;;;4949164;28;20532;-79
2023/09/01 09:58:20;;;;;;;4.75;2.15;;;17.50;81.90;;;;;;4944383;28;20121;-79
2023/09/01 10:00:49;;;;;;;5.00;2.20;;;17.50;81.00;;;;;;4959940;28;20039;-79
2023/09/01 10:03:16;;;;;;;3.03;2.10;;;17.60;81.40;;;;;;4953029;28;20034;-78
2023/09/01 10:05:44;;;;;;;6.20;1.85;;;17.70;81.30;;;;;;4967316;28;20407;-77
2023/09/01 10:08:11;;;;;;;5.18;2.15;;;17.70;79.80;;;;;;4959476;28;20046;-79
2023/09/01 10:10:37;;;;;;;4.30;2.38;;;17.70;80.30;;;;;;4944215;29;20376;-78
2023/09/01 10:13:06;;;;;;;4.60;1.85;;;17.70;80.60;;;;;;4944546;29;20133;-81
2023/09/01 10:15:33;;;;;;;3.50;1.65;;;17.70;79.80;;;;;;4944581;28;20133;-80
2023/09/01 10:18:02;;;;;;;4.47;1.98;;;17.70;80.00;;;;;;4944437;28;20047;-79
2023/09/01 10:20:36;;;;;;;3.75;2.15;;;17.80;80.20;;;;;;4943922;29;20074;-79
2023/09/01 10:23:06;;;;;;;3.22;1.80;;;17.90;80.20;;;;;;4943896;29;20103;-80
2023/09/01 10:25:34;;;;;;;9.55;2.10;;;18.00;80.20;;;;;;4960443;28;20134;-79
2023/09/01 10:28:01;;;;;;;3.03;1.70;;;18.00;79.50;;;;;;4944747;29;20395;-80
2023/09/01 10:30:28;;;;;;;3.90;1.92;;;18.10;79.00;;;;;;4960179;29;20134;-79
2023/09/01 10:33:09;;;;;;;5.32;2.17;;;18.20;78.90;;;;;;4959795;28;20039;-78
2023/09/01 10:35:36;;;;;;;4.00;1.80;;;18.30;78.00;;;;;;4940566;29;20562;-81
2023/09/01 10:38:18;;;;;;;5.20;2.00;;;18.50;78.90;;;;;;4957098;29;20182;-81
2023/09/01 10:40:47;;;;;;;4.93;1.80;;;18.60;78.20;;;;;;4941661;29;20054;-80
2023/09/01 10:43:37;;;;;;;7.05;1.80;;;18.70;78.20;;;;;;4940845;29;20169;-81
2023/09/01 10:46:23;;;;;;;3.10;1.80;;;18.70;77.80;;;;;;4956525;29;20051;-80
2023/09/01 10:48:54;;;;;;;3.25;2.05;;;18.80;77.50;;;;;;4956124;29;20046;-81
2023/09/01 10:51:20;;;;;;;5.03;2.22;;;18.80;76.50;;;;;;4956293;29;20059;-81
2023/09/01 10:53:46;;;;;;;3.92;1.77;;;18.80;74.60;;;;;;4988887;28;20043;-82
2023/09/01 10:56:15;;;;;;;3.78;1.80;;;18.80;75.10;;;;;;4940736;29;20053;-80
2023/09/01 10:58:43;;;;;;;4.50;1.95;;;19.00;75.60;;;;;;4972726;28;20045;-81
2023/09/01 11:01:25;;;;;;;3.63;2.13;;;19.20;74.50;;;;;;4940236;29;20048;-79
2023/09/01 11:03:52;;;;;;;3.85;1.88;;;19.50;73.50;;;;;;4956391;29;20046;-81
2023/09/01 11:06:17;;;;;;;3.78;2.13;;;19.80;74.20;;;;;;4940448;29;20043;-80
2023/09/01 11:08:59;;;;;;;6.00;2.08;;;20.00;73.50;;;;;;4940935;29;20097;-80
2023/09/01 11:11:26;;;;;;;3.60;2.17;;;20.00;70.70;;;;;;4988757;28;20086;-79
2023/09/01 11:13:59;;;;;;;4.38;1.88;;;20.20;72.50;;;;;;4988371;28;20047;-80
2023/09/01 11:16:25;;;;;;;7.28;2.65;;;20.30;71.80;;;;;;4988862;28;20414;-78
2023/09/01 11:18:59;;;;;;;4.50;2.13;;;20.40;71.70;;;;;;4972658;28;20130;-81
2023/09/01 11:21:25;;;;;;;5.15;2.30;;;20.40;71.10;;;;;;4940332;29;20116;-81
2023/09/01 11:24:00;;;;;;;3.22;1.83;;;20.40;71.20;;;;;;4907439;29;20057;-81
2023/09/01 11:26:26;;;;;;;3.90;2.10;;;20.20;70.60;;;;;;4938562;28;20046;-81
2023/09/01 11:28:51;;;;;;;6.55;2.97;;;20.20;71.70;;;;;;4955110;28;20039;-80
2023/09/01 11:31:17;;;;;;;6.00;2.80;;;20.20;71.10;;;;;;4955426;29;20487;-82
2023/09/01 11:33:52;;;;;;;8.90;3.42;;;20.10;70.80;;;;;;4970875;28;20043;-81
2023/09/01 11:36:18;;;;;;;4.05;2.70;;;20.20;71.60;;;;;;4987525;28;20071;-80
2023/09/01 11:38:44;;;;;;;5.25;2.63;;;20.20;71.40;;;;;;4955493;28;20047;-80
2023/09/01 11:41:19;;;;;;;7.13;3.70;;;20.10;71.10;;;;;;4939690;29;20094;-81
2023/09/01 11:43:45;;;;;;;4.78;2.78;;;20.20;70.50;;;;;;4939733;29;20039;-81
2023/09/01 11:46:11;;;;;;;5.50;2.40;;;20.30;70.90;;;;;;4954522;28;20043;-81
2023/09/01 11:48:37;;;;;;;3.42;2.40;;;20.40;71.60;;;;;;4955335;29;20093;-82
2023/09/01 11:51:04;;;;;;;5.93;2.85;;;20.60;71.70;;;;;;4987580;28;20142;-81
2023/09/01 11:53:33;;;;;;;7.75;3.45;;;20.90;72.20;;;;;;4939614;29;20495;-82
2023/09/01 11:56:03;;;;;;;8.93;3.10;;;21.20;71.20;;;;;;4955319;29;20097;-81
2023/09/01 11:58:32;;;;;;;4.60;2.70;;;21.50;70.80;;;;;;4955243;29;20042;-81
2023/09/01 12:01:08;;;;;;;8.02;3.33;;;21.70;69.80;;;;;;4939202;29;20062;-80
2023/09/01 12:03:34;;;;;;;6.45;2.85;;;21.90;68.20;;;;;;4987831;28;20050;-80
2023/09/01 12:05:59;;;;;;;7.45;3.25;;;21.90;67.80;;;;;;4955113;28;20051;-81
2023/09/01 12:08:25;;;;;;;5.15;2.70;;;21.90;68.10;;;;;;4970780;28;20039;-81
2023/09/01 12:11:05;;;;;;;3.92;2.58;;;22.00;68.50;;;;;;4971165;28;20047;-82
2023/09/01 12:13:31;;;;;;;6.97;3.63;;;22.10;68.00;;;;;;4987507;28;20054;-80
2023/09/01 12:16:04;;;;;;;7.90;3.33;;;22.30;68.40;;;;;;4954889;28;20439;-82
2023/09/01 12:18:36;;;;;;;8.80;3.60;;;22.20;63.90;;;;;;4938941;29;20134;-82
2023/09/01 12:21:04;;;;;;;8.27;3.40;;;22.40;65.80;;;;;;4938833;29;20050;-82
2023/09/01 12:23:40;;;;;;;7.93;3.08;;;22.60;66.20;;;;;;4987074;28;20049;-82
2023/09/01 12:26:06;;;;;;;9.95;3.28;;;22.50;65.30;;;;;;4939092;29;20047;-81
2023/09/01 12:28:35;;;;;;;7.90;3.22;;;22.70;65.10;;;;;;4986793;28;20727;-81
2023/09/01 12:31:02;;;;;;;5.90;3.00;;;22.70;65.70;;;;;;4986934;28;20047;-80
2023/09/01 12:33:28;;;;;;;6.47;3.30;;;22.70;65.20;;;;;;4987381;28;20083;-81
2023/09/01 12:35:54;;;;;;;6.70;3.28;;;22.60;63.80;;;;;;4938485;29;20053;-81
2023/09/01 12:38:20;;;;;;;9.43;3.83;;;22.60;64.80;;;;;;4970767;28;20137;-81
2023/09/01 12:40:47;;;;;;;5.32;3.25;;;22.70;64.60;;;;;;4986648;28;20043;-81
2023/09/01 12:43:13;;;;;;;7.18;3.15;;;22.50;64.30;;;;;;4954125;28;20047;-82
2023/09/01 12:45:40;;;;;;;4.80;2.70;;;22.40;64.60;;;;;;4970338;28;20081;-81
2023/09/01 12:48:06;;;;;;;7.10;3.67;;;22.20;65.10;;;;;;4970638;28;20395;-81